createdAt,value
2022-10-04T02:44:32.736Z,8.60
2022-10-04T03:14:39.180Z,17.80
2022-10-04T03:44:44.583Z,10.45
2022-10-04T04:14:51.431Z,9.80
2022-10-04T04:44:57.810Z,12.32
2022-10-04T05:15:01.939Z,12.18
2022-10-04T05:45:15.277Z,12.70
2022-10-04T06:15:42.758Z,10.68
2022-10-04T06:45:58.357Z,6.35
2022-10-04T07:16:06.185Z,5.80
2022-10-04T07:46:16.268Z,8.27
2022-10-04T08:16:34.199Z,3.95
2022-10-04T08:47:22.449Z,6.45
2022-10-04T09:17:33.555Z,7.32
2022-10-04T09:47:45.641Z,9.20
2022-10-04T10:17:54.555Z,6.65
2022-10-04T10:48:01.905Z,7.05
2022-10-04T11:18:29.705Z,7.43
2022-10-04T11:48:43.808Z,4.80
2022-10-04T12:19:15.490Z,4.03
2022-10-04T12:49:26.920Z,4.32
2022-10-04T13:19:35.187Z,4.32
2022-10-04T13:49:52.541Z,5.38
2022-10-04T14:20:24.247Z,6.03
2022-10-04T14:50:31.507Z,5.13
2022-10-04T15:20:49.614Z,4.38
2022-10-04T15:51:01.604Z,4.75
2022-10-04T16:21:15.980Z,6.07
2022-10-04T16:51:50.404Z,7.43
2022-10-04T17:22:06.882Z,11.00
2022-10-04T17:52:39.422Z,10.15
2022-10-04T18:22:49.351Z,13.13
2022-10-04T18:53:01.884Z,24.13
2022-10-04T19:23:12.302Z,15.52
2022-10-04T19:53:19.371Z,33.55
2022-10-04T20:23:49.905Z,49.90
2022-10-04T20:53:54.721Z,17.23
2022-10-04T21:23:58.978Z,14.90
2022-10-04T21:54:03.258Z,16.00
2022-10-04T22:24:11.977Z,15.38
2022-10-04T22:54:17.845Z,13.30
2022-10-04T23:24:23.493Z,9.48
